Time;durP1;ratioP1;P1;durP2;ratioP2;P2;SDS_P1;SDS_P2;PMS_P1;PMS_P2;Temp;Humidity;BMP_temperature;BMP_pressure;BME280_temperature;BME280_humidity;BME280_pressure;Samples;Min_cycle;Max_cycle;Signal;HPM_P1;HPM_P2
2023/06/02 00:08:22;;;;;;;;;;;;;;;13.96;54.81;98318.22;436088;1252;108074;-43
2023/06/02 00:18:25;;;;;;;;;;;;;;;13.72;55.01;98315.27;436011;1252;98853;-42
2023/06/02 00:28:31;;;;;;;;;;;;;;;13.45;55.30;98314.15;435960;1252;108800;-44
2023/06/02 00:38:36;;;;;;;;;;;;;;;13.23;55.92;98316.76;435978;1252;99234;-42
2023/06/02 00:48:42;;;;;;;;;;;;;;;13.03;56.34;98318.70;436073;1250;110590;-43
2023/06/02 00:58:47;;;;;;;;;;;;;;;13.03;56.91;98317.16;435870;1252;109288;-43
2023/06/02 01:08:54;;;;;;;;;;;;;;;13.06;57.33;98312.98;436040;1252;97931;-43
2023/06/02 01:19:00;;;;;;;;;;;;;;;13.12;57.75;98309.21;435928;1252;108233;-43
2023/06/02 01:29:07;;;;;;;;;;;;;;;13.09;58.09;98305.42;436036;1248;99093;-43
2023/06/02 01:39:13;;;;;;;;;;;;;;;12.86;58.40;98308.46;436502;1249;110906;-42
2023/06/02 01:49:20;;;;;;;;;;;;;;;12.54;58.63;98307.63;435423;1254;107355;-42
2023/06/02 01:59:25;;;;;;;;;;;;;;;12.22;59.07;98305.73;435470;1253;99228;-42
2023/06/02 02:09:31;;;;;;;;;;;;;;;11.96;59.42;98309.45;435404;1254;107826;-43
2023/06/02 02:19:37;;;;;;;;;;;;;;;11.74;59.69;98310.36;435173;1253;98495;-44
2023/06/02 02:29:43;;;;;;;;;;;;;;;11.67;60.20;98310.39;435231;1254;111744;-43
2023/06/02 02:39:48;;;;;;;;;;;;;;;11.69;60.53;98310.56;435243;1254;108514;-43
2023/06/02 02:49:54;;;;;;;;;;;;;;;11.70;60.68;98315.70;435348;1253;98025;-43
2023/06/02 03:00:00;;;;;;;;;;;;;;;11.74;60.93;98328.36;435468;1253;108635;-43
2023/06/02 03:10:06;;;;;;;;;;;;;;;11.87;61.33;98330.16;435398;1250;97991;-44
2023/06/02 03:30:20;;;;;;;;;;;;;;;14.32;60.21;98338.27;435336;1254;107627;-43
2023/06/02 03:40:26;;;;;;;;;;;;;;;15.97;58.62;98339.88;435408;1253;99257;-42
2023/06/02 03:50:31;;;;;;;;;;;;;;;17.34;56.98;98348.23;435130;1252;479659;-43
2023/06/02 04:00:37;;;;;;;;;;;;;;;18.57;55.51;98350.85;435212;1253;99221;-44
2023/06/02 04:10:43;;;;;;;;;;;;;;;19.67;54.33;98357.77;435225;1254;111898;-43
2023/06/02 04:20:49;;;;;;;;;;;;;;;20.11;53.21;98366.10;435319;1255;109045;-42
2023/06/02 04:30:53;;;;;;;;;;;;;;;20.49;52.04;98375.61;435270;1253;98027;-46
2023/06/02 04:41:01;;;;;;;;;;;;;;;20.96;51.02;98378.81;435298;1254;107733;-43
2023/06/02 04:51:07;;;;;;;;;;;;;;;21.23;50.36;98384.09;435329;1253;98539;-43
2023/06/02 05:01:12;;;;;;;;;;;;;;;21.61;49.75;98385.25;435357;1255;111010;-42
2023/06/02 05:11:18;;;;;;;;;;;;;;;22.16;49.05;98387.23;435504;1251;107867;-42
2023/06/02 05:21:23;;;;;;;;;;;;;;;22.21;48.36;98390.75;435470;1255;99240;-41
2023/06/02 05:31:29;;;;;;;;;;;;;;;21.89;47.94;98388.85;435438;1254;107933;-41
2023/06/02 05:41:34;;;;;;;;;;;;;;;21.56;47.74;98395.06;435399;1254;99225;-42
2023/06/02 05:51:39;;;;;;;;;;;;;;;21.62;47.63;98404.25;435429;1249;111918;-41
2023/06/02 06:01:43;;;;;;;;;;;;;;;21.53;47.02;98418.80;435371;1253;108602;-42
2023/06/02 06:11:49;;;;;;;;;;;;;;;21.01;47.03;98425.39;435465;1253;98345;-43
2023/06/02 06:21:54;;;;;;;;;;;;;;;21.19;47.23;98429.89;435286;1254;108330;-42
2023/06/02 06:32:00;;;;;;;;;;;;;;;21.46;47.13;98427.89;435470;1255;99346;-42
2023/06/02 06:42:07;;;;;;;;;;;;;;;21.39;47.05;98434.20;435374;1251;112274;-41
2023/06/02 06:52:13;;;;;;;;;;;;;;;21.47;46.62;98442.95;435227;1253;108760;-43
2023/06/02 07:02:19;;;;;;;;;;;;;;;21.59;46.53;98446.88;435510;1253;97999;-41
2023/06/02 07:12:24;;;;;;;;;;;;;;;20.68;46.67;98451.58;435488;1253;108374;-43
2023/06/02 07:22:30;;;;;;;;;;;;;;;20.62;47.16;98455.94;435354;1255;99317;-43
2023/06/02 07:32:36;;;;;;;;;;;;;;;21.04;46.58;98460.34;435495;1255;111407;-43
2023/06/02 07:42:42;;;;;;;;;;;;;;;21.08;46.28;98459.71;435481;1252;108074;-42
2023/06/02 07:52:47;;;;;;;;;;;;;;;21.45;46.25;98459.94;435416;1254;98361;-46
2023/06/02 08:02:53;;;;;;;;;;;;;;;21.71;45.80;98465.58;435339;1255;107700;-43
2023/06/02 08:12:59;;;;;;;;;;;;;;;21.20;45.51;98470.33;435429;1254;99273;-42
2023/06/02 08:23:07;;;;;;;;;;;;;;;21.14;45.68;98476.31;435469;1253;111312;-43
2023/06/02 08:33:14;;;;;;;;;;;;;;;21.01;45.84;98477.77;435259;1254;108416;-43
2023/06/02 08:43:19;;;;;;;;;;;;;;;21.24;45.26;98483.95;435517;1254;98565;-42
2023/06/02 08:53:25;;;;;;;;;;;;;;;20.89;44.96;98497.77;435399;1255;108670;-43
2023/06/02 09:03:31;;;;;;;;;;;;;;;20.69;44.42;98511.84;435510;1255;97916;-43
2023/06/02 09:13:50;;;;;;;;;;;;;;;20.26;44.53;98528.55;435449;1250;112938;-42
2023/06/02 09:34:18;;;;;;;;;;;;;;;20.18;45.02;98550.61;435276;1250;99240;-42
2023/06/02 09:54:28;;;;;;;;;;;;;;;19.96;44.34;98546.45;435427;1253;99227;-43
2023/06/02 10:04:34;;;;;;;;;;;;;;;20.14;44.02;98549.55;435526;1254;112024;-43
2023/06/02 10:14:41;;;;;;;;;;;;;;;19.75;44.04;98550.91;435502;1252;108211;-41
2023/06/02 10:24:47;;;;;;;;;;;;;;;20.16;44.16;98546.30;435466;1254;98522;-42
2023/06/02 10:34:53;;;;;;;;;;;;;;;20.27;43.51;98554.20;435423;1252;107744;-42
2023/06/02 10:45:12;;;;;;;;;;;;;;;20.35;43.47;98562.77;435520;1252;98436;-42
2023/06/02 11:05:33;;;;;;;;;;;;;;;20.39;43.26;98571.97;435536;1255;107814;-42
2023/06/02 11:15:39;;;;;;;;;;;;;;;20.08;43.30;98583.90;435468;1263;97972;-43
2023/06/02 11:25:45;;;;;;;;;;;;;;;19.71;43.29;98586.79;435493;1253;111838;-43
2023/06/02 11:35:58;;;;;;;;;;;;;;;19.21;44.10;98596.55;435684;1254;97993;-42
2023/06/02 11:46:06;;;;;;;;;;;;;;;19.34;44.70;98594.30;435688;1250;111985;-43
2023/06/02 11:56:10;;;;;;;;;;;;;;;19.22;44.98;98612.17;435435;1254;109468;-42
2023/06/02 12:06:16;;;;;;;;;;;;;;;18.78;46.75;98626.48;435592;1253;99215;-43
2023/06/02 12:26:39;;;;;;;;;;;;;;;19.09;47.40;98628.15;435871;1254;99204;-43
2023/06/02 12:36:45;;;;;;;;;;;;;;;18.72;48.48;98638.75;435656;1254;111065;-42
2023/06/02 12:46:50;;;;;;;;;;;;;;;18.93;48.43;98647.14;435385;1254;107540;-42
2023/06/02 12:56:56;;;;;;;;;;;;;;;18.83;48.02;98650.45;435607;1254;98571;-42
2023/06/02 13:07:04;;;;;;;;;;;;;;;18.87;48.01;98653.67;435552;1255;108681;-42
2023/06/02 13:17:10;;;;;;;;;;;;;;;18.89;48.10;98656.13;436053;1254;97973;-41
2023/06/02 13:27:17;;;;;;;;;;;;;;;18.69;48.07;98659.36;435552;1254;111953;-43
2023/06/02 13:37:33;;;;;;;;;;;;;;;18.68;48.38;98659.46;435681;1263;108126;-42
2023/06/02 13:47:39;;;;;;;;;;;;;;;17.68;49.26;98670.89;435610;1255;98480;-42
2023/06/02 13:57:45;;;;;;;;;;;;;;;16.62;50.58;98684.27;435554;1263;108490;-43
2023/06/02 14:07:51;;;;;;;;;;;;;;;16.52;51.31;98683.36;435458;1262;98431;-43
2023/06/02 14:17:57;;;;;;;;;;;;;;;16.60;51.44;98684.65;435662;1251;111261;-43
2023/06/02 14:38:07;;;;;;;;;;;;;;;17.33;51.77;98689.80;435556;1254;98005;-43
2023/06/02 14:48:13;;;;;;;;;;;;;;;17.46;51.76;98699.80;435687;1254;109068;-43
2023/06/02 14:58:20;;;;;;;;;;;;;;;17.43;51.57;98712.32;435617;1253;99517;-42
2023/06/02 15:08:29;;;;;;;;;;;;;;;16.81;52.14;98726.20;435756;1253;112763;-44
2023/06/02 15:18:35;;;;;;;;;;;;;;;16.04;53.28;98739.17;435669;1249;108754;-43
2023/06/02 15:28:55;;;;;;;;;;;;;;;15.33;54.99;98758.35;435655;1255;97964;-44
2023/06/02 15:39:02;;;;;;;;;;;;;;;15.02;55.53;98762.51;435617;1269;107533;-44
2023/06/02 15:49:07;;;;;;;;;;;;;;;14.57;56.66;98767.13;435268;1263;410573;-42
2023/06/02 15:59:13;;;;;;;;;;;;;;;14.54;57.10;98771.89;435536;1254;112421;-42
2023/06/02 16:09:19;;;;;;;;;;;;;;;14.45;57.33;98768.49;435773;1254;107524;-43
2023/06/02 16:19:24;;;;;;;;;;;;;;;14.32;57.33;98778.55;436161;1256;97980;-44
2023/06/02 16:29:30;;;;;;;;;;;;;;;14.16;57.60;98783.80;435649;1254;108733;-42
2023/06/02 16:39:36;;;;;;;;;;;;;;;14.19;57.74;98787.34;435546;1253;99205;-45
2023/06/02 16:59:47;;;;;;;;;;;;;;;14.59;58.11;98790.67;435548;1254;108698;-43
2023/06/02 17:09:53;;;;;;;;;;;;;;;14.64;57.98;98795.55;435726;1252;98806;-42
2023/06/02 17:19:59;;;;;;;;;;;;;;;14.62;57.86;98798.67;435599;1254;109465;-43
2023/06/02 17:30:06;;;;;;;;;;;;;;;14.49;57.79;98801.84;435871;1250;98897;-43
2023/06/02 17:40:12;;;;;;;;;;;;;;;14.35;57.79;98805.25;435719;1251;110545;-43
2023/06/02 17:50:17;;;;;;;;;;;;;;;14.45;57.32;98807.50;435761;1254;107738;-44
2023/06/02 18:00:23;;;;;;;;;;;;;;;14.04;57.15;98811.85;435655;1251;99221;-44
2023/06/02 18:10:29;;;;;;;;;;;;;;;13.82;57.36;98823.48;435597;1249;107810;-42
2023/06/02 18:20:35;;;;;;;;;;;;;;;13.67;57.59;98835.60;436511;1255;99211;-42
2023/06/02 18:30:40;;;;;;;;;;;;;;;13.58;57.86;98847.11;435808;1253;112831;-42
2023/06/02 18:40:46;;;;;;;;;;;;;;;13.34;58.24;98858.54;435645;1254;108401;-42
2023/06/02 18:50:52;;;;;;;;;;;;;;;12.96;58.57;98869.78;435594;1254;99234;-42
2023/06/02 19:00:57;;;;;;;;;;;;;;;12.59;58.91;98882.25;435939;1254;108467;-42
2023/06/02 19:11:03;;;;;;;;;;;;;;;12.26;59.33;98896.30;436030;1249;99032;-42
2023/06/02 19:21:08;;;;;;;;;;;;;;;12.07;59.85;98899.86;435571;1254;111902;-41
2023/06/02 19:31:13;;;;;;;;;;;;;;;11.90;60.34;98911.05;436251;1253;106972;-43
2023/06/02 19:41:20;;;;;;;;;;;;;;;11.65;60.74;98909.65;435682;1254;97983;-42
2023/06/02 19:51:25;;;;;;;;;;;;;;;11.35;61.51;98918.57;435684;1252;108926;-43
2023/06/02 20:01:32;;;;;;;;;;;;;;;10.96;61.76;98927.73;435627;1252;99227;-43
2023/06/02 20:11:38;;;;;;;;;;;;;;;10.53;62.36;98934.91;435703;1252;111360;-42
2023/06/02 20:21:44;;;;;;;;;;;;;;;10.31;63.18;98949.64;435538;1253;109279;-42
2023/06/02 20:31:49;;;;;;;;;;;;;;;10.02;63.37;98964.16;435546;1254;98822;-43
2023/06/02 20:41:55;;;;;;;;;;;;;;;9.72;63.75;98980.85;435665;1253;107277;-43
2023/06/02 20:52:01;;;;;;;;;;;;;;;9.50;63.82;98996.60;435406;1254;99225;-42
2023/06/02 21:02:06;;;;;;;;;;;;;;;9.39;64.16;99010.59;435573;1253;111290;-43
2023/06/02 21:12:10;;;;;;;;;;;;;;;9.27;64.63;99024.56;435470;1254;105580;-44
2023/06/02 21:22:16;;;;;;;;;;;;;;;9.39;64.54;99031.30;435741;1253;99247;-43
2023/06/02 21:32:21;;;;;;;;;;;;;;;9.33;64.37;99047.02;435564;1253;106266;-43
2023/06/02 21:42:27;;;;;;;;;;;;;;;9.11;64.43;99055.73;435523;1252;98034;-41
2023/06/02 21:52:33;;;;;;;;;;;;;;;8.78;64.48;99063.52;435391;1252;111772;-43
2023/06/02 22:02:39;;;;;;;;;;;;;;;8.47;64.46;99065.11;435430;1252;108430;-43
2023/06/02 22:12:45;;;;;;;;;;;;;;;8.14;64.63;99063.58;435641;1250;99231;-42
2023/06/02 22:22:51;;;;;;;;;;;;;;;7.89;64.76;99061.46;435585;1250;112004;-43
2023/06/02 22:32:56;;;;;;;;;;;;;;;7.77;64.91;99063.95;435388;1252;106521;-43
2023/06/02 22:43:02;;;;;;;;;;;;;;;7.74;65.03;99067.07;435462;1254;99220;-41
2023/06/02 22:53:07;;;;;;;;;;;;;;;7.80;65.03;99071.21;435478;1253;107668;-42
2023/06/02 23:03:14;;;;;;;;;;;;;;;7.70;64.83;99079.30;435490;1253;99220;-42
2023/06/02 23:13:20;;;;;;;;;;;;;;;7.48;64.76;99082.29;435471;1254;111595;-42
2023/06/02 23:23:26;;;;;;;;;;;;;;;7.15;64.73;99084.39;435427;1251;108231;-41
2023/06/02 23:33:33;;;;;;;;;;;;;;;6.78;64.76;99091.79;435569;1252;98869;-44
2023/06/02 23:43:39;;;;;;;;;;;;;;;6.50;64.74;99101.27;435453;1252;111985;-43
2023/06/02 23:53:45;;;;;;;;;;;;;;;6.29;65.10;99108.10;435564;1249;107332;-42
